createdAt,value
2023-04-01T00:01:28.729Z,88.66
2023-04-01T00:03:55.866Z,88.08
2023-04-01T00:06:23.297Z,88.31
2023-04-01T00:08:50.681Z,88.00
2023-04-01T00:11:17.980Z,87.85
2023-04-01T00:13:48.464Z,87.78
2023-04-01T00:16:21.005Z,87.89
2023-04-01T00:18:50.311Z,88.31
2023-04-01T00:21:17.435Z,88.27
2023-04-01T00:23:46.939Z,87.63
2023-04-01T00:26:15.273Z,88.13
2023-04-01T00:28:42.794Z,88.01
2023-04-01T00:31:11.417Z,87.65
2023-04-01T00:33:39.704Z,87.86
2023-04-01T00:36:18.685Z,87.43
2023-04-01T00:38:46.945Z,87.28
2023-04-01T00:41:15.906Z,87.53
2023-04-01T00:43:44.404Z,87.40
2023-04-01T00:46:11.523Z,87.59
2023-04-01T00:48:41.209Z,87.45
2023-04-01T00:51:11.105Z,87.49
2023-04-01T00:53:41.670Z,87.81
2023-04-01T00:56:13.372Z,87.70
2023-04-01T00:58:44.095Z,87.16
2023-04-01T01:01:11.582Z,87.68
2023-04-01T01:03:38.494Z,87.86
2023-04-01T01:06:24.773Z,87.68
2023-04-01T01:09:20.652Z,87.14
2023-04-01T01:12:07.174Z,87.70
2023-04-01T01:14:55.982Z,87.08
2023-04-01T01:17:49.976Z,87.45
2023-04-01T01:20:56.694Z,87.09
2023-04-01T01:23:48.342Z,87.05
2023-04-01T01:26:41.914Z,87.35
2023-04-01T01:29:48.539Z,87.32
2023-04-01T01:32:55.681Z,87.29
2023-04-01T01:35:48.411Z,86.89
2023-04-01T01:38:22.789Z,86.90
2023-04-01T01:40:57.692Z,87.00
2023-04-01T01:43:27.818Z,87.06
2023-04-01T01:45:57.975Z,86.59
2023-04-01T01:48:26.231Z,86.83
2023-04-01T01:50:54.028Z,87.26
2023-04-01T01:53:21.570Z,86.68
2023-04-01T01:55:48.917Z,86.76
2023-04-01T01:58:24.654Z,86.74
2023-04-01T02:00:56.232Z,86.77
2023-04-01T02:03:25.537Z,86.81
2023-04-01T02:05:54.794Z,86.60
2023-04-01T02:08:25.717Z,86.61
2023-04-01T02:10:59.181Z,86.72
2023-04-01T02:13:34.224Z,86.55
2023-04-01T02:16:03.842Z,86.46
2023-04-01T02:18:31.332Z,86.51
2023-04-01T02:20:59.905Z,86.44
2023-04-01T02:23:28.162Z,86.35
2023-04-01T02:25:55.387Z,86.31
2023-04-01T02:28:23.815Z,86.46
2023-04-01T02:30:51.244Z,86.44
2023-04-01T02:33:18.476Z,86.51
2023-04-01T02:35:45.439Z,86.44
2023-04-01T02:38:12.426Z,86.46
2023-04-01T02:40:45.769Z,86.71
2023-04-01T02:43:12.767Z,86.38
2023-04-01T02:45:39.586Z,86.43
2023-04-01T02:48:07.043Z,86.62
2023-04-01T02:50:34.098Z,86.50
2023-04-01T02:53:01.261Z,86.38
2023-04-01T02:55:28.206Z,86.56
2023-04-01T02:57:55.020Z,86.39
2023-04-01T03:00:22.187Z,86.37
2023-04-01T03:02:49.094Z,86.34
2023-04-01T03:05:16.562Z,86.37
2023-04-01T03:07:43.356Z,86.39
2023-04-01T03:10:10.905Z,86.37
2023-04-01T03:12:38.031Z,86.31
2023-04-01T03:15:11.462Z,86.25
2023-04-01T03:17:40.598Z,86.44
2023-04-01T03:20:09.477Z,86.31
2023-04-01T03:22:36.726Z,86.35
2023-04-01T03:25:05.912Z,86.37
2023-04-01T03:27:32.737Z,86.38
2023-04-01T03:29:59.665Z,86.46
2023-04-01T03:32:28.401Z,86.46
2023-04-01T03:34:55.430Z,86.59
2023-04-01T03:37:22.670Z,86.56
2023-04-01T03:39:49.798Z,86.33
2023-04-01T03:42:16.677Z,86.38
2023-04-01T03:44:43.510Z,86.41
2023-04-01T03:47:11.798Z,86.46
2023-04-01T03:49:38.662Z,86.36
2023-04-01T03:52:05.552Z,86.58
2023-04-01T03:54:33.198Z,86.51
2023-04-01T03:57:00.130Z,86.50
2023-04-01T03:59:27.332Z,86.43
2023-04-01T04:01:54.484Z,86.61
2023-04-01T04:04:21.696Z,86.53
2023-04-01T04:06:49.190Z,86.56
2023-04-01T04:09:17.040Z,86.50
2023-04-01T04:11:43.810Z,86.45
2023-04-01T04:14:10.725Z,86.57
2023-04-01T04:16:37.922Z,86.56
2023-04-01T04:19:05.981Z,86.54
2023-04-01T04:21:32.798Z,86.40
2023-04-01T04:24:01.178Z,86.47
2023-04-01T04:26:32.202Z,86.41
2023-04-01T04:29:01.672Z,86.50
2023-04-01T04:31:28.884Z,86.48
2023-04-01T04:34:00.449Z,86.64
2023-04-01T04:36:27.713Z,86.74
2023-04-01T04:38:55.295Z,86.63
2023-04-01T04:41:23.420Z,86.85
2023-04-01T04:43:54.123Z,86.58
2023-04-01T04:46:23.208Z,86.72
2023-04-01T04:48:54.584Z,86.57
2023-04-01T04:51:22.616Z,86.88
2023-04-01T04:53:51.486Z,86.45
2023-04-01T04:56:22.426Z,86.76
2023-04-01T04:58:57.915Z,86.76
2023-04-01T05:01:31.310Z,86.68
2023-04-01T05:03:58.258Z,86.66
2023-04-01T05:06:26.643Z,86.83
2023-04-01T05:08:53.736Z,86.85
2023-04-01T05:11:21.542Z,86.74
2023-04-01T05:13:51.382Z,86.67
2023-04-01T05:16:20.774Z,86.63
2023-04-01T05:18:48.525Z,86.92
2023-04-01T05:21:16.411Z,87.00
2023-04-01T05:23:44.220Z,86.78
2023-04-01T05:26:13.434Z,86.61
2023-04-01T05:28:40.638Z,86.85
2023-04-01T05:31:08.304Z,86.72
2023-04-01T05:33:38.427Z,86.55
2023-04-01T05:36:14.127Z,86.64
2023-04-01T05:38:43.493Z,87.00
2023-04-01T05:41:12.975Z,87.01
2023-04-01T05:43:44.340Z,86.60
2023-04-01T05:46:31.354Z,87.06
2023-04-01T05:49:06.215Z,86.82
2023-04-01T05:51:33.590Z,86.77
2023-04-01T05:54:00.437Z,86.97
2023-04-01T05:56:27.994Z,87.09
2023-04-01T05:58:56.816Z,86.86
2023-04-01T06:01:24.672Z,86.76
2023-04-01T06:03:52.064Z,87.00
2023-04-01T06:06:27.434Z,87.20
2023-04-01T06:09:09.237Z,86.99
2023-04-01T06:12:02.058Z,86.94
2023-04-01T06:14:58.835Z,87.03
2023-04-01T06:17:46.911Z,86.98
2023-04-01T06:20:27.137Z,87.13
2023-04-01T06:23:25.606Z,87.16
2023-04-01T06:26:21.740Z,87.35
2023-04-01T06:29:01.218Z,87.00
2023-04-01T06:31:51.795Z,87.18
2023-04-01T06:34:53.814Z,87.16
2023-04-01T06:38:00.770Z,87.10
2023-04-01T06:41:07.833Z,87.20
2023-04-01T06:43:59.881Z,86.99
2023-04-01T06:46:49.777Z,87.21
2023-04-01T06:50:04.665Z,87.24
2023-04-01T06:53:22.712Z,87.23
2023-04-01T06:56:12.123Z,87.12
2023-04-01T06:58:53.228Z,87.40
2023-04-01T07:01:25.633Z,87.19
2023-04-01T07:03:58.361Z,86.97
2023-04-01T07:06:37.523Z,86.77
2023-04-01T07:09:13.378Z,86.96
2023-04-01T07:12:06.461Z,87.15
2023-04-01T07:14:54.566Z,87.27
2023-04-01T07:17:28.503Z,87.21
2023-04-01T07:20:07.729Z,87.33
2023-04-01T07:22:56.151Z,87.61
2023-04-01T07:25:35.156Z,87.62
2023-04-01T07:28:23.226Z,87.40
2023-04-01T07:31:16.784Z,87.41
2023-04-01T07:33:52.221Z,87.62
2023-04-01T07:36:37.694Z,87.28
2023-04-01T07:39:33.969Z,87.56
2023-04-01T07:42:38.660Z,87.62
2023-04-01T07:45:24.015Z,87.56
2023-04-01T07:48:07.160Z,87.53
2023-04-01T07:50:38.563Z,87.60
2023-04-01T07:53:30.030Z,87.58
2023-04-01T07:56:12.814Z,88.19
2023-04-01T07:59:12.586Z,88.38
2023-04-01T08:02:33.328Z,88.55
2023-04-01T08:05:32.054Z,88.43
2023-04-01T08:08:16.645Z,88.55
2023-04-01T08:11:43.814Z,88.61
2023-04-01T08:14:54.164Z,88.62
2023-04-01T08:18:18.317Z,88.48
2023-04-01T08:21:07.277Z,88.42
2023-04-01T08:23:51.654Z,88.47
2023-04-01T08:26:45.290Z,88.33
2023-04-01T08:29:17.991Z,88.21
2023-04-01T08:32:07.414Z,88.05
2023-04-01T08:34:39.418Z,87.98
2023-04-01T08:37:22.308Z,88.14
2023-04-01T08:40:33.119Z,88.10
2023-04-01T08:43:27.400Z,87.88
2023-04-01T08:46:21.510Z,87.85
2023-04-01T08:49:23.164Z,87.78
2023-04-01T08:52:17.090Z,87.57
2023-04-01T08:55:10.838Z,87.60
2023-04-01T08:58:18.599Z,87.67
2023-04-01T09:01:19.732Z,87.67
2023-04-01T09:04:04.948Z,87.38
2023-04-01T09:06:49.022Z,87.60
2023-04-01T09:09:38.170Z,87.52
2023-04-01T09:12:46.864Z,87.57
2023-04-01T09:15:27.207Z,87.47
2023-04-01T09:18:25.125Z,87.43
2023-04-01T09:21:32.157Z,87.60
2023-04-01T09:24:22.533Z,87.57
2023-04-01T09:27:28.012Z,87.43
2023-04-01T09:30:18.541Z,87.21
2023-04-01T09:33:17.768Z,87.47
2023-04-01T09:36:04.315Z,87.16
2023-04-01T09:38:46.140Z,86.72
2023-04-01T09:41:31.924Z,87.13
2023-04-01T09:44:20.163Z,86.94
2023-04-01T09:47:23.190Z,87.00
2023-04-01T09:50:30.083Z,86.96
2023-04-01T09:53:36.828Z,86.77
2023-04-01T09:56:28.511Z,86.63
2023-04-01T09:59:35.274Z,86.54
2023-04-01T10:03:02.056Z,86.35
2023-04-01T10:06:10.054Z,86.29
2023-04-01T10:09:16.999Z,86.03
2023-04-01T10:12:24.376Z,86.03
2023-04-01T10:15:31.355Z,86.08
2023-04-01T10:18:13.498Z,86.04
2023-04-01T10:21:08.152Z,85.77
2023-04-01T10:24:11.726Z,85.66
2023-04-01T10:27:20.915Z,85.68
2023-04-01T10:30:47.474Z,85.86
2023-04-01T10:34:01.882Z,85.44
2023-04-01T10:36:50.578Z,85.38
2023-04-01T10:39:59.158Z,85.38
2023-04-01T10:43:18.315Z,85.08
2023-04-01T10:46:23.035Z,85.37
2023-04-01T10:49:12.839Z,85.10
2023-04-01T10:52:22.140Z,85.24
2023-04-01T10:55:48.676Z,85.17
2023-04-01T10:59:15.351Z,84.77
2023-04-01T11:02:42.075Z,85.02
2023-04-01T11:06:08.680Z,84.84
2023-04-01T11:09:15.415Z,84.75
2023-04-01T11:12:06.045Z,84.77
2023-04-01T11:15:13.293Z,84.94
2023-04-01T11:18:12.455Z,84.95
2023-04-01T11:21:07.412Z,84.70
2023-04-01T11:24:14.263Z,84.70
2023-04-01T11:27:29.679Z,84.50
2023-04-01T11:30:37.832Z,84.46
2023-04-01T11:33:18.819Z,84.38
2023-04-01T11:35:59.132Z,84.47
2023-04-01T11:38:52.171Z,84.29
2023-04-01T11:42:06.822Z,84.20
2023-04-01T11:45:35.272Z,83.93
2023-04-01T11:48:44.909Z,84.15
2023-04-01T11:51:52.695Z,84.00
2023-04-01T11:54:48.582Z,83.99
2023-04-01T11:57:45.165Z,83.88
2023-04-01T12:00:51.829Z,83.78
2023-04-01T12:03:43.299Z,83.87
2023-04-01T12:06:32.018Z,83.73
2023-04-01T12:09:14.426Z,83.41
2023-04-01T12:12:21.082Z,83.55
2023-04-01T12:15:22.937Z,83.53
2023-04-01T12:18:05.447Z,83.45
2023-04-01T12:20:59.197Z,83.56
2023-04-01T12:24:05.881Z,83.53
2023-04-01T12:27:08.234Z,83.52
2023-04-01T12:30:00.470Z,83.32
2023-04-01T12:32:59.935Z,83.16
2023-04-01T12:36:08.695Z,83.19
2023-04-01T12:39:08.250Z,83.20
2023-04-01T12:42:00.094Z,83.19
2023-04-01T12:44:39.137Z,83.21
2023-04-01T12:47:18.233Z,83.19
2023-04-01T12:49:58.306Z,82.99
2023-04-01T12:52:52.422Z,82.86
2023-04-01T12:55:36.408Z,82.94
2023-04-01T12:58:43.076Z,82.93
2023-04-01T13:01:30.728Z,82.80
2023-04-01T13:04:30.124Z,82.63
2023-04-01T13:07:36.769Z,82.84
2023-04-01T13:10:29.804Z,82.80
2023-04-01T13:13:27.145Z,82.70
2023-04-01T13:16:00.080Z,82.71
2023-04-01T13:18:38.152Z,82.58
2023-04-01T13:21:44.925Z,82.54
2023-04-01T13:24:34.662Z,82.71
2023-04-01T13:27:32.297Z,82.64
2023-04-01T13:30:38.894Z,82.70
2023-04-01T13:33:34.318Z,82.60
2023-04-01T13:36:25.911Z,82.82
2023-04-01T13:39:10.758Z,82.68
2023-04-01T13:42:01.967Z,82.75
2023-04-01T13:44:40.626Z,82.55
2023-04-01T13:47:42.116Z,82.39
2023-04-01T13:50:27.769Z,82.67
2023-04-01T13:53:34.551Z,82.49
2023-04-01T13:56:18.084Z,82.85
2023-04-01T13:59:24.685Z,82.53
2023-04-01T14:02:18.534Z,82.67
2023-04-01T14:04:55.069Z,82.74
2023-04-01T14:07:47.414Z,82.79
2023-04-01T14:10:41.197Z,82.97
2023-04-01T14:13:23.110Z,82.48
2023-04-01T14:16:10.563Z,82.76
2023-04-01T14:19:11.511Z,82.89
2023-04-01T14:22:18.141Z,82.81
2023-04-01T14:25:12.317Z,82.77
2023-04-01T14:28:10.055Z,82.84
2023-04-01T14:30:52.690Z,82.87
2023-04-01T14:33:56.478Z,82.71
2023-04-01T14:36:59.365Z,82.73
2023-04-01T14:39:59.843Z,82.89
2023-04-01T14:42:47.275Z,82.91
2023-04-01T14:45:37.834Z,83.15
2023-04-01T14:48:26.742Z,82.77
2023-04-01T14:50:56.337Z,82.78
2023-04-01T14:53:30.086Z,82.91
2023-04-01T14:56:01.241Z,82.76
2023-04-01T14:58:48.756Z,82.81
2023-04-01T15:01:32.994Z,83.31
2023-04-01T15:04:34.622Z,83.08
2023-04-01T15:07:42.129Z,83.01
2023-04-01T15:10:40.469Z,83.09
2023-04-01T15:13:47.177Z,82.98
2023-04-01T15:16:36.376Z,83.15
2023-04-01T15:19:43.017Z,82.87
2023-04-01T15:22:49.753Z,83.37
2023-04-01T15:25:31.034Z,82.95
2023-04-01T15:28:17.977Z,83.46
2023-04-01T15:31:00.784Z,82.99
2023-04-01T15:34:07.758Z,83.15
2023-04-01T15:36:59.334Z,83.14
2023-04-01T15:39:50.683Z,83.27
2023-04-01T15:42:33.425Z,83.57
2023-04-01T15:45:09.424Z,83.40
2023-04-01T15:47:43.731Z,83.13
2023-04-01T15:50:33.774Z,83.34
2023-04-01T15:53:22.268Z,83.48
2023-04-01T15:56:17.810Z,83.43
2023-04-01T15:58:56.354Z,83.03
2023-04-01T16:01:46.081Z,83.51
2023-04-01T16:04:43.393Z,83.12
2023-04-01T16:07:37.551Z,83.21
2023-04-01T16:10:33.092Z,83.52
2023-04-01T16:13:25.896Z,83.29
2023-04-01T16:16:02.515Z,83.23
2023-04-01T16:19:03.001Z,83.08
2023-04-01T16:21:38.552Z,83.29
2023-04-01T16:24:26.242Z,83.23
2023-04-01T16:26:59.279Z,83.41
2023-04-01T16:29:39.861Z,82.96
2023-04-01T16:32:46.547Z,83.26
2023-04-01T16:35:37.277Z,83.18
2023-04-01T16:38:22.764Z,82.95
2023-04-01T16:41:13.797Z,83.05
2023-04-01T16:43:55.618Z,82.96
2023-04-01T16:46:30.177Z,83.14
2023-04-01T16:49:24.969Z,82.99
2023-04-01T16:52:06.879Z,83.22
2023-04-01T16:54:43.804Z,83.20
2023-04-01T16:57:29.666Z,83.20
2023-04-01T17:00:32.462Z,83.28
2023-04-01T17:03:09.715Z,82.95
2023-04-01T17:06:02.592Z,83.00
2023-04-01T17:08:56.549Z,83.10
2023-04-01T17:11:30.293Z,82.85
2023-04-01T17:14:27.575Z,82.85
2023-04-01T17:17:05.520Z,82.98
2023-04-01T17:19:59.525Z,83.06
2023-04-01T17:22:51.115Z,82.82
2023-04-01T17:25:43.066Z,83.21
2023-04-01T17:28:37.780Z,82.95
2023-04-01T17:31:18.424Z,83.10
2023-04-01T17:34:09.880Z,82.92
2023-04-01T17:37:16.594Z,82.64
2023-04-01T17:40:01.974Z,82.73
2023-04-01T17:43:08.634Z,82.98
2023-04-01T17:45:56.995Z,82.94
2023-04-01T17:48:43.165Z,82.76
2023-04-01T17:51:42.891Z,83.05
2023-04-01T17:54:42.008Z,83.07
2023-04-01T17:57:28.882Z,82.78
2023-04-01T18:00:19.391Z,82.84
2023-04-01T18:03:23.155Z,82.71
2023-04-01T18:06:20.857Z,82.68
2023-04-01T18:09:00.352Z,82.65
2023-04-01T18:11:48.375Z,82.85
2023-04-01T18:14:51.224Z,82.61
2023-04-01T18:17:57.995Z,82.53
2023-04-01T18:20:38.520Z,82.74
2023-04-01T18:23:30.849Z,82.41
2023-04-01T18:26:23.290Z,82.71
2023-04-01T18:28:59.822Z,82.24
2023-04-01T18:31:34.265Z,82.58
2023-04-01T18:34:09.259Z,82.48
2023-04-01T18:37:03.317Z,82.58
2023-04-01T18:39:44.160Z,82.29
2023-04-01T18:42:44.590Z,82.56
2023-04-01T18:45:38.263Z,82.50
2023-04-01T18:48:15.690Z,82.20
2023-04-01T18:50:49.161Z,82.21
2023-04-01T18:53:37.448Z,82.43
2023-04-01T18:56:06.805Z,82.12
2023-04-01T18:58:40.045Z,82.27
2023-04-01T19:01:16.752Z,82.36
2023-04-01T19:04:14.112Z,82.43
2023-04-01T19:06:49.983Z,82.07
2023-04-01T19:12:35.225Z,82.03
2023-04-01T19:15:28.182Z,82.23
2023-04-01T19:18:14.236Z,81.96
2023-04-01T19:20:59.566Z,82.06
2023-04-01T19:24:08.641Z,81.70
2023-04-01T19:27:17.889Z,81.76
2023-04-01T19:30:27.694Z,81.80
2023-04-01T19:33:28.803Z,81.79
2023-04-01T19:40:30.286Z,81.74
2023-04-01T19:43:08.226Z,81.73
2023-04-01T19:45:43.565Z,81.72
2023-04-01T19:48:42.025Z,81.69
2023-04-01T19:51:33.097Z,81.54
2023-04-01T19:54:12.324Z,81.75
2023-04-01T19:56:46.067Z,81.58
2023-04-01T19:59:29.774Z,81.43
2023-04-01T20:02:22.366Z,81.81
2023-04-01T20:04:53.034Z,81.59
2023-04-01T20:07:46.459Z,81.47
2023-04-01T20:10:33.547Z,81.62
2023-04-01T20:13:08.111Z,81.38
2023-04-01T20:15:38.853Z,81.47
2023-04-01T20:18:16.832Z,81.73
2023-04-01T20:20:56.386Z,81.80
2023-04-01T20:23:44.867Z,81.37
2023-04-01T20:26:13.977Z,81.27
2023-04-01T20:29:20.679Z,81.38
2023-04-01T20:32:05.609Z,81.44
2023-04-01T20:34:55.019Z,81.23
2023-04-01T20:37:52.051Z,81.44
2023-04-01T20:40:31.673Z,81.64
2023-04-01T20:43:13.042Z,81.65
2023-04-01T20:46:06.885Z,81.45
2023-04-01T20:49:09.932Z,81.00
2023-04-01T20:51:40.657Z,81.53
2023-04-01T20:54:39.069Z,81.45
2023-04-01T20:57:33.299Z,81.37
2023-04-01T21:00:29.706Z,81.55
2023-04-01T21:03:24.600Z,81.72
2023-04-01T21:06:31.306Z,81.48
2023-04-01T21:09:24.800Z,81.36
2023-04-01T21:12:25.810Z,81.38
2023-04-01T21:15:32.602Z,81.50
2023-04-01T21:18:17.876Z,81.50
2023-04-01T21:21:08.098Z,81.59
2023-04-01T21:24:14.747Z,81.15
2023-04-01T21:26:54.533Z,81.50
2023-04-01T21:29:44.363Z,84.22
2023-04-01T21:32:41.566Z,85.49
2023-04-01T21:35:48.254Z,85.92
2023-04-01T21:38:54.928Z,85.75
2023-04-01T21:41:59.970Z,85.97
2023-04-01T21:44:55.944Z,85.38
2023-04-01T21:48:02.683Z,85.50
2023-04-01T21:50:57.073Z,85.48
2023-04-01T21:54:03.755Z,85.37
2023-04-01T21:56:51.370Z,85.08
2023-04-01T21:59:53.931Z,85.39
2023-04-01T22:03:00.807Z,85.37
2023-04-01T22:05:32.661Z,85.04
2023-04-01T22:08:39.574Z,85.10
2023-04-01T22:11:18.026Z,85.06
2023-04-01T22:13:57.744Z,84.93
2023-04-01T22:16:47.606Z,84.81
2023-04-01T22:19:51.868Z,84.99
2023-04-01T22:22:23.786Z,85.17
2023-04-01T22:24:54.748Z,85.27
2023-04-01T22:27:36.010Z,85.05
2023-04-01T22:30:24.520Z,84.73
2023-04-01T22:33:06.722Z,84.65
2023-04-01T22:35:44.513Z,84.92
2023-04-01T22:38:32.450Z,85.28
2023-04-01T22:41:13.315Z,84.87
2023-04-01T22:43:42.258Z,85.11
2023-04-01T22:46:37.168Z,85.21
2023-04-01T22:49:24.034Z,85.28
2023-04-01T22:51:55.563Z,84.93
2023-04-01T22:54:30.801Z,85.07
2023-04-01T22:57:05.871Z,85.31
2023-04-01T22:59:59.102Z,85.10
2023-04-01T23:02:33.920Z,85.02
2023-04-01T23:05:03.283Z,85.21
2023-04-01T23:07:57.197Z,85.31
2023-04-01T23:10:43.366Z,85.16
2023-04-01T23:13:34.886Z,85.17
2023-04-01T23:16:02.879Z,85.06
2023-04-01T23:18:37.423Z,85.32
2023-04-01T23:21:13.147Z,85.61
2023-04-01T23:23:54.638Z,85.48
2023-04-01T23:26:33.648Z,85.52
2023-04-01T23:29:00.854Z,85.77
2023-04-01T23:31:37.027Z,85.82
2023-04-01T23:34:26.215Z,86.06
2023-04-01T23:37:13.097Z,85.98
2023-04-01T23:39:42.148Z,85.76
2023-04-01T23:42:15.681Z,85.99
2023-04-01T23:44:44.870Z,85.79
2023-04-01T23:47:20.203Z,85.91
2023-04-01T23:49:50.475Z,85.65
2023-04-01T23:52:27.298Z,86.12
2023-04-01T23:55:00.939Z,86.10
2023-04-01T23:57:33.540Z,85.85
